sensor_id;sensor_type;location;lat;lon;timestamp;P1;durP1;ratioP1;P2;durP2;ratioP2
69410;SDS011;56604;48.652;9.194;2024-01-07T00:01:23;29.33;;;14.80;;
69410;SDS011;56604;48.652;9.194;2024-01-07T00:03:49;27.20;;;14.83;;
69410;SDS011;56604;48.652;9.194;2024-01-07T00:06:16;27.20;;;16.03;;
69410;SDS011;56604;48.652;9.194;2024-01-07T00:08:41;29.93;;;15.80;;
69410;SDS011;56604;48.652;9.194;2024-01-07T00:11:06;41.97;;;17.70;;
69410;SDS011;56604;48.652;9.194;2024-01-07T00:13:32;36.87;;;18.07;;
69410;SDS011;56604;48.652;9.194;2024-01-07T00:15:57;34.67;;;17.33;;
69410;SDS011;56604;48.652;9.194;2024-01-07T00:18:22;32.57;;;16.20;;
69410;SDS011;56604;48.652;9.194;2024-01-07T00:20:49;34.07;;;16.90;;
69410;SDS011;56604;48.652;9.194;2024-01-07T00:23:14;34.60;;;17.00;;
69410;SDS011;56604;48.652;9.194;2024-01-07T00:25:39;32.70;;;16.53;;
69410;SDS011;56604;48.652;9.194;2024-01-07T00:28:05;36.60;;;17.63;;
69410;SDS011;56604;48.652;9.194;2024-01-07T00:30:30;29.40;;;16.43;;
69410;SDS011;56604;48.652;9.194;2024-01-07T00:32:55;30.60;;;15.93;;
69410;SDS011;56604;48.652;9.194;2024-01-07T00:35:21;34.73;;;16.87;;
69410;SDS011;56604;48.652;9.194;2024-01-07T00:37:46;30.07;;;16.03;;
69410;SDS011;56604;48.652;9.194;2024-01-07T00:40:12;36.97;;;17.63;;
69410;SDS011;56604;48.652;9.194;2024-01-07T00:42:37;30.00;;;16.20;;
69410;SDS011;56604;48.652;9.194;2024-01-07T00:45:02;34.63;;;17.20;;
69410;SDS011;56604;48.652;9.194;2024-01-07T00:47:28;33.50;;;16.80;;
69410;SDS011;56604;48.652;9.194;2024-01-07T00:49:53;35.33;;;17.27;;
69410;SDS011;56604;48.652;9.194;2024-01-07T00:52:19;39.03;;;17.80;;
69410;SDS011;56604;48.652;9.194;2024-01-07T00:54:44;42.67;;;17.43;;
69410;SDS011;56604;48.652;9.194;2024-01-07T00:57:12;31.07;;;16.30;;
69410;SDS011;56604;48.652;9.194;2024-01-07T00:59:38;33.43;;;15.93;;
69410;SDS011;56604;48.652;9.194;2024-01-07T01:02:03;25.27;;;14.13;;
69410;SDS011;56604;48.652;9.194;2024-01-07T01:04:29;25.37;;;16.00;;
69410;SDS011;56604;48.652;9.194;2024-01-07T01:06:54;30.90;;;16.23;;
69410;SDS011;56604;48.652;9.194;2024-01-07T01:09:19;32.53;;;16.10;;
69410;SDS011;56604;48.652;9.194;2024-01-07T01:11:44;29.73;;;15.83;;
69410;SDS011;56604;48.652;9.194;2024-01-07T01:14:10;31.23;;;16.57;;
69410;SDS011;56604;48.652;9.194;2024-01-07T01:16:35;34.23;;;16.67;;
69410;SDS011;56604;48.652;9.194;2024-01-07T01:19:01;30.73;;;16.60;;
69410;SDS011;56604;48.652;9.194;2024-01-07T01:21:26;33.00;;;17.00;;
69410;SDS011;56604;48.652;9.194;2024-01-07T01:23:51;31.33;;;16.03;;
69410;SDS011;56604;48.652;9.194;2024-01-07T01:26:16;28.60;;;16.23;;
69410;SDS011;56604;48.652;9.194;2024-01-07T01:28:42;35.40;;;17.00;;
69410;SDS011;56604;48.652;9.194;2024-01-07T01:31:07;30.43;;;15.57;;
69410;SDS011;56604;48.652;9.194;2024-01-07T01:33:32;34.00;;;17.43;;
69410;SDS011;56604;48.652;9.194;2024-01-07T01:35:58;28.90;;;15.67;;
69410;SDS011;56604;48.652;9.194;2024-01-07T01:38:23;32.17;;;16.00;;
69410;SDS011;56604;48.652;9.194;2024-01-07T01:40:52;28.13;;;14.70;;
69410;SDS011;56604;48.652;9.194;2024-01-07T01:43:27;28.93;;;15.40;;
69410;SDS011;56604;48.652;9.194;2024-01-07T01:45:54;25.77;;;13.43;;
69410;SDS011;56604;48.652;9.194;2024-01-07T01:48:21;28.30;;;15.43;;
69410;SDS011;56604;48.652;9.194;2024-01-07T01:50:47;26.50;;;14.67;;
69410;SDS011;56604;48.652;9.194;2024-01-07T01:53:14;25.07;;;13.17;;
69410;SDS011;56604;48.652;9.194;2024-01-07T01:55:41;22.53;;;14.33;;
69410;SDS011;56604;48.652;9.194;2024-01-07T01:58:08;30.73;;;15.40;;
69410;SDS011;56604;48.652;9.194;2024-01-07T02:00:34;26.10;;;14.10;;
69410;SDS011;56604;48.652;9.194;2024-01-07T02:03:00;31.47;;;15.00;;
69410;SDS011;56604;48.652;9.194;2024-01-07T02:05:26;30.93;;;15.60;;
69410;SDS011;56604;48.652;9.194;2024-01-07T02:07:51;36.50;;;16.97;;
69410;SDS011;56604;48.652;9.194;2024-01-07T02:10:17;29.37;;;15.13;;
69410;SDS011;56604;48.652;9.194;2024-01-07T02:12:42;30.40;;;15.50;;
69410;SDS011;56604;48.652;9.194;2024-01-07T02:15:08;35.83;;;15.60;;
69410;SDS011;56604;48.652;9.194;2024-01-07T02:17:33;34.87;;;15.80;;
69410;SDS011;56604;48.652;9.194;2024-01-07T02:19:59;31.47;;;15.30;;
69410;SDS011;56604;48.652;9.194;2024-01-07T02:22:24;35.80;;;18.10;;
69410;SDS011;56604;48.652;9.194;2024-01-07T02:24:49;35.40;;;17.00;;
69410;SDS011;56604;48.652;9.194;2024-01-07T02:27:15;39.13;;;18.17;;
69410;SDS011;56604;48.652;9.194;2024-01-07T02:29:40;36.90;;;16.93;;
69410;SDS011;56604;48.652;9.194;2024-01-07T02:32:05;36.20;;;16.13;;
69410;SDS011;56604;48.652;9.194;2024-01-07T02:34:31;31.80;;;16.00;;
69410;SDS011;56604;48.652;9.194;2024-01-07T02:36:56;29.83;;;15.50;;
69410;SDS011;56604;48.652;9.194;2024-01-07T02:39:21;29.27;;;16.00;;
69410;SDS011;56604;48.652;9.194;2024-01-07T02:41:47;32.00;;;16.67;;
69410;SDS011;56604;48.652;9.194;2024-01-07T02:44:12;36.97;;;16.30;;
69410;SDS011;56604;48.652;9.194;2024-01-07T02:46:37;35.07;;;15.83;;
69410;SDS011;56604;48.652;9.194;2024-01-07T02:49:03;31.23;;;16.20;;
69410;SDS011;56604;48.652;9.194;2024-01-07T02:51:28;38.07;;;16.87;;
69410;SDS011;56604;48.652;9.194;2024-01-07T02:53:53;29.60;;;15.83;;
69410;SDS011;56604;48.652;9.194;2024-01-07T02:56:19;35.93;;;15.17;;
69410;SDS011;56604;48.652;9.194;2024-01-07T02:58:44;33.90;;;15.87;;
69410;SDS011;56604;48.652;9.194;2024-01-07T03:01:09;38.73;;;16.90;;
69410;SDS011;56604;48.652;9.194;2024-01-07T03:03:35;35.80;;;16.83;;
69410;SDS011;56604;48.652;9.194;2024-01-07T03:06:00;38.90;;;17.97;;
69410;SDS011;56604;48.652;9.194;2024-01-07T03:08:26;33.80;;;16.60;;
69410;SDS011;56604;48.652;9.194;2024-01-07T03:10:52;36.83;;;17.60;;
69410;SDS011;56604;48.652;9.194;2024-01-07T03:13:18;36.50;;;16.97;;
69410;SDS011;56604;48.652;9.194;2024-01-07T03:15:44;33.53;;;16.80;;
69410;SDS011;56604;48.652;9.194;2024-01-07T03:18:09;26.63;;;16.03;;
69410;SDS011;56604;48.652;9.194;2024-01-07T03:20:34;34.70;;;17.03;;
69410;SDS011;56604;48.652;9.194;2024-01-07T03:23:00;41.80;;;17.20;;
69410;SDS011;56604;48.652;9.194;2024-01-07T03:25:25;36.60;;;17.60;;
69410;SDS011;56604;48.652;9.194;2024-01-07T03:27:51;28.50;;;16.53;;
69410;SDS011;56604;48.652;9.194;2024-01-07T03:30:16;34.00;;;17.43;;
69410;SDS011;56604;48.652;9.194;2024-01-07T03:32:41;31.60;;;16.63;;
69410;SDS011;56604;48.652;9.194;2024-01-07T03:35:07;30.47;;;15.97;;
69410;SDS011;56604;48.652;9.194;2024-01-07T03:37:33;29.63;;;16.07;;
69410;SDS011;56604;48.652;9.194;2024-01-07T03:39:59;32.80;;;16.17;;
69410;SDS011;56604;48.652;9.194;2024-01-07T03:42:24;37.53;;;16.70;;
69410;SDS011;56604;48.652;9.194;2024-01-07T03:44:50;33.00;;;16.30;;
69410;SDS011;56604;48.652;9.194;2024-01-07T03:47:15;28.03;;;15.33;;
69410;SDS011;56604;48.652;9.194;2024-01-07T03:49:41;33.73;;;17.73;;
69410;SDS011;56604;48.652;9.194;2024-01-07T03:52:06;30.93;;;16.80;;
69410;SDS011;56604;48.652;9.194;2024-01-07T03:54:32;26.63;;;16.77;;
69410;SDS011;56604;48.652;9.194;2024-01-07T03:56:58;48.80;;;18.20;;
69410;SDS011;56604;48.652;9.194;2024-01-07T03:59:24;31.53;;;16.90;;
69410;SDS011;56604;48.652;9.194;2024-01-07T04:01:50;30.27;;;16.93;;
69410;SDS011;56604;48.652;9.194;2024-01-07T04:04:16;31.10;;;17.03;;
69410;SDS011;56604;48.652;9.194;2024-01-07T04:06:41;35.90;;;15.43;;
69410;SDS011;56604;48.652;9.194;2024-01-07T04:09:07;24.90;;;15.50;;
69410;SDS011;56604;48.652;9.194;2024-01-07T04:11:33;32.40;;;16.57;;
69410;SDS011;56604;48.652;9.194;2024-01-07T04:14:04;23.63;;;14.27;;
69410;SDS011;56604;48.652;9.194;2024-01-07T04:16:29;24.13;;;13.23;;
69410;SDS011;56604;48.652;9.194;2024-01-07T04:18:54;26.80;;;13.37;;
69410;SDS011;56604;48.652;9.194;2024-01-07T04:21:20;27.67;;;13.40;;
69410;SDS011;56604;48.652;9.194;2024-01-07T04:23:45;20.80;;;14.10;;
69410;SDS011;56604;48.652;9.194;2024-01-07T04:26:11;21.50;;;13.63;;
69410;SDS011;56604;48.652;9.194;2024-01-07T04:28:37;23.47;;;14.73;;
69410;SDS011;56604;48.652;9.194;2024-01-07T04:31:05;25.77;;;14.47;;
69410;SDS011;56604;48.652;9.194;2024-01-07T04:33:30;41.20;;;15.20;;
69410;SDS011;56604;48.652;9.194;2024-01-07T04:35:56;25.60;;;14.20;;
69410;SDS011;56604;48.652;9.194;2024-01-07T04:38:23;25.33;;;13.80;;
69410;SDS011;56604;48.652;9.194;2024-01-07T04:40:49;19.50;;;13.27;;
69410;SDS011;56604;48.652;9.194;2024-01-07T04:43:15;27.63;;;13.63;;
69410;SDS011;56604;48.652;9.194;2024-01-07T04:45:40;29.57;;;14.20;;
69410;SDS011;56604;48.652;9.194;2024-01-07T04:48:05;23.37;;;14.00;;
69410;SDS011;56604;48.652;9.194;2024-01-07T04:50:31;18.33;;;12.20;;
69410;SDS011;56604;48.652;9.194;2024-01-07T04:52:56;20.63;;;12.20;;
69410;SDS011;56604;48.652;9.194;2024-01-07T04:55:22;20.83;;;12.33;;
69410;SDS011;56604;48.652;9.194;2024-01-07T04:57:47;17.33;;;11.40;;
69410;SDS011;56604;48.652;9.194;2024-01-07T05:00:12;22.70;;;12.90;;
69410;SDS011;56604;48.652;9.194;2024-01-07T05:02:38;17.47;;;11.47;;
69410;SDS011;56604;48.652;9.194;2024-01-07T05:05:03;22.57;;;10.50;;
69410;SDS011;56604;48.652;9.194;2024-01-07T05:07:29;21.27;;;11.00;;
69410;SDS011;56604;48.652;9.194;2024-01-07T05:09:54;17.17;;;11.60;;
69410;SDS011;56604;48.652;9.194;2024-01-07T05:12:19;20.27;;;12.90;;
69410;SDS011;56604;48.652;9.194;2024-01-07T05:14:45;20.00;;;11.50;;
69410;SDS011;56604;48.652;9.194;2024-01-07T05:17:11;19.40;;;11.37;;
69410;SDS011;56604;48.652;9.194;2024-01-07T05:19:39;26.77;;;11.70;;
69410;SDS011;56604;48.652;9.194;2024-01-07T05:22:05;19.60;;;11.87;;
69410;SDS011;56604;48.652;9.194;2024-01-07T05:24:30;15.67;;;10.83;;
69410;SDS011;56604;48.652;9.194;2024-01-07T05:26:56;23.57;;;11.40;;
69410;SDS011;56604;48.652;9.194;2024-01-07T05:29:21;16.57;;;11.40;;
69410;SDS011;56604;48.652;9.194;2024-01-07T05:31:47;20.73;;;12.40;;
69410;SDS011;56604;48.652;9.194;2024-01-07T05:34:12;23.03;;;13.30;;
69410;SDS011;56604;48.652;9.194;2024-01-07T05:36:38;21.57;;;12.40;;
69410;SDS011;56604;48.652;9.194;2024-01-07T05:39:03;23.00;;;13.07;;
69410;SDS011;56604;48.652;9.194;2024-01-07T05:41:29;23.07;;;13.40;;
69410;SDS011;56604;48.652;9.194;2024-01-07T05:43:54;36.60;;;13.20;;
69410;SDS011;56604;48.652;9.194;2024-01-07T05:46:20;27.07;;;15.13;;
69410;SDS011;56604;48.652;9.194;2024-01-07T05:48:46;29.43;;;15.73;;
69410;SDS011;56604;48.652;9.194;2024-01-07T05:51:12;28.10;;;15.10;;
69410;SDS011;56604;48.652;9.194;2024-01-07T05:53:39;28.00;;;15.07;;
69410;SDS011;56604;48.652;9.194;2024-01-07T05:56:04;27.30;;;14.27;;
69410;SDS011;56604;48.652;9.194;2024-01-07T05:58:30;29.57;;;15.10;;
69410;SDS011;56604;48.652;9.194;2024-01-07T06:00:55;24.37;;;15.50;;
69410;SDS011;56604;48.652;9.194;2024-01-07T06:03:21;32.30;;;14.87;;
69410;SDS011;56604;48.652;9.194;2024-01-07T06:05:46;29.57;;;16.37;;
69410;SDS011;56604;48.652;9.194;2024-01-07T06:08:11;33.40;;;15.90;;
69410;SDS011;56604;48.652;9.194;2024-01-07T06:10:38;34.17;;;16.23;;
69410;SDS011;56604;48.652;9.194;2024-01-07T06:13:03;28.57;;;15.03;;
69410;SDS011;56604;48.652;9.194;2024-01-07T06:15:29;45.63;;;17.97;;
69410;SDS011;56604;48.652;9.194;2024-01-07T06:17:54;30.13;;;16.70;;
69410;SDS011;56604;48.652;9.194;2024-01-07T06:20:20;25.77;;;14.30;;
69410;SDS011;56604;48.652;9.194;2024-01-07T06:22:45;27.00;;;14.43;;
69410;SDS011;56604;48.652;9.194;2024-01-07T06:25:11;27.57;;;12.70;;
69410;SDS011;56604;48.652;9.194;2024-01-07T06:27:38;26.13;;;14.60;;
69410;SDS011;56604;48.652;9.194;2024-01-07T06:30:04;25.90;;;14.40;;
69410;SDS011;56604;48.652;9.194;2024-01-07T06:32:30;22.17;;;14.27;;
69410;SDS011;56604;48.652;9.194;2024-01-07T06:34:57;21.37;;;12.67;;
69410;SDS011;56604;48.652;9.194;2024-01-07T06:37:25;19.87;;;12.20;;
69410;SDS011;56604;48.652;9.194;2024-01-07T06:39:50;24.40;;;15.27;;
69410;SDS011;56604;48.652;9.194;2024-01-07T06:42:16;24.80;;;14.83;;
69410;SDS011;56604;48.652;9.194;2024-01-07T06:44:42;23.70;;;13.50;;
69410;SDS011;56604;48.652;9.194;2024-01-07T06:47:07;24.83;;;13.70;;
69410;SDS011;56604;48.652;9.194;2024-01-07T06:49:32;22.53;;;13.67;;
69410;SDS011;56604;48.652;9.194;2024-01-07T06:51:58;18.13;;;12.53;;
69410;SDS011;56604;48.652;9.194;2024-01-07T06:54:24;23.20;;;14.13;;
69410;SDS011;56604;48.652;9.194;2024-01-07T06:56:50;22.43;;;12.47;;
69410;SDS011;56604;48.652;9.194;2024-01-07T06:59:15;24.23;;;13.80;;
69410;SDS011;56604;48.652;9.194;2024-01-07T07:01:40;23.80;;;14.70;;
69410;SDS011;56604;48.652;9.194;2024-01-07T07:04:06;25.63;;;14.87;;
69410;SDS011;56604;48.652;9.194;2024-01-07T07:06:31;23.70;;;15.20;;
69410;SDS011;56604;48.652;9.194;2024-01-07T07:08:57;29.67;;;16.47;;
69410;SDS011;56604;48.652;9.194;2024-01-07T07:11:22;26.40;;;15.17;;
69410;SDS011;56604;48.652;9.194;2024-01-07T07:13:47;27.40;;;15.53;;
69410;SDS011;56604;48.652;9.194;2024-01-07T07:16:12;28.73;;;16.37;;
69410;SDS011;56604;48.652;9.194;2024-01-07T07:18:38;24.20;;;15.53;;
69410;SDS011;56604;48.652;9.194;2024-01-07T07:21:03;27.00;;;15.23;;
69410;SDS011;56604;48.652;9.194;2024-01-07T07:23:29;27.50;;;16.00;;
69410;SDS011;56604;48.652;9.194;2024-01-07T07:25:54;24.60;;;15.50;;
69410;SDS011;56604;48.652;9.194;2024-01-07T07:28:19;28.30;;;15.97;;
69410;SDS011;56604;48.652;9.194;2024-01-07T07:30:45;29.50;;;16.13;;
69410;SDS011;56604;48.652;9.194;2024-01-07T07:33:10;28.77;;;15.77;;
69410;SDS011;56604;48.652;9.194;2024-01-07T07:35:35;26.97;;;15.10;;
69410;SDS011;56604;48.652;9.194;2024-01-07T07:38:03;23.40;;;15.27;;
69410;SDS011;56604;48.652;9.194;2024-01-07T07:40:30;32.00;;;16.80;;
69410;SDS011;56604;48.652;9.194;2024-01-07T07:42:55;30.63;;;16.87;;
69410;SDS011;56604;48.652;9.194;2024-01-07T07:45:20;25.80;;;17.40;;
69410;SDS011;56604;48.652;9.194;2024-01-07T07:47:45;27.70;;;17.73;;
69410;SDS011;56604;48.652;9.194;2024-01-07T07:50:11;30.40;;;15.77;;
69410;SDS011;56604;48.652;9.194;2024-01-07T07:52:36;26.40;;;15.13;;
69410;SDS011;56604;48.652;9.194;2024-01-07T07:55:01;25.20;;;14.50;;
69410;SDS011;56604;48.652;9.194;2024-01-07T07:57:27;24.17;;;15.33;;
69410;SDS011;56604;48.652;9.194;2024-01-07T07:59:53;25.23;;;15.60;;
69410;SDS011;56604;48.652;9.194;2024-01-07T08:02:19;30.50;;;15.70;;
69410;SDS011;56604;48.652;9.194;2024-01-07T08:04:45;30.43;;;14.93;;
69410;SDS011;56604;48.652;9.194;2024-01-07T08:07:10;24.17;;;13.67;;
69410;SDS011;56604;48.652;9.194;2024-01-07T08:09:35;24.70;;;14.00;;
69410;SDS011;56604;48.652;9.194;2024-01-07T08:12:02;23.10;;;13.80;;
69410;SDS011;56604;48.652;9.194;2024-01-07T08:14:28;26.03;;;13.47;;
69410;SDS011;56604;48.652;9.194;2024-01-07T08:16:54;28.80;;;14.30;;
69410;SDS011;56604;48.652;9.194;2024-01-07T08:19:19;21.63;;;13.87;;
69410;SDS011;56604;48.652;9.194;2024-01-07T08:21:45;25.10;;;15.20;;
69410;SDS011;56604;48.652;9.194;2024-01-07T08:24:10;21.00;;;13.33;;
69410;SDS011;56604;48.652;9.194;2024-01-07T08:26:36;29.83;;;15.23;;
69410;SDS011;56604;48.652;9.194;2024-01-07T08:29:01;20.93;;;11.80;;
69410;SDS011;56604;48.652;9.194;2024-01-07T08:31:26;25.27;;;14.57;;
69410;SDS011;56604;48.652;9.194;2024-01-07T08:33:52;22.70;;;14.63;;
69410;SDS011;56604;48.652;9.194;2024-01-07T08:36:17;26.27;;;14.30;;
69410;SDS011;56604;48.652;9.194;2024-01-07T08:38:43;20.87;;;12.90;;
69410;SDS011;56604;48.652;9.194;2024-01-07T08:41:08;21.60;;;13.53;;
69410;SDS011;56604;48.652;9.194;2024-01-07T08:43:34;25.73;;;13.50;;
69410;SDS011;56604;48.652;9.194;2024-01-07T08:45:59;29.00;;;12.60;;
69410;SDS011;56604;48.652;9.194;2024-01-07T08:48:25;21.53;;;11.43;;
69410;SDS011;56604;48.652;9.194;2024-01-07T08:50:51;23.83;;;14.13;;
69410;SDS011;56604;48.652;9.194;2024-01-07T08:53:16;28.20;;;14.17;;
69410;SDS011;56604;48.652;9.194;2024-01-07T08:55:42;19.20;;;11.33;;
69410;SDS011;56604;48.652;9.194;2024-01-07T08:58:07;19.47;;;11.43;;
69410;SDS011;56604;48.652;9.194;2024-01-07T09:00:33;20.30;;;12.23;;
69410;SDS011;56604;48.652;9.194;2024-01-07T09:02:58;12.30;;;9.10;;
69410;SDS011;56604;48.652;9.194;2024-01-07T09:05:23;10.40;;;7.70;;
69410;SDS011;56604;48.652;9.194;2024-01-07T09:07:51;13.63;;;8.30;;
69410;SDS011;56604;48.652;9.194;2024-01-07T09:10:17;13.60;;;8.80;;
69410;SDS011;56604;48.652;9.194;2024-01-07T09:12:43;8.07;;;6.87;;
69410;SDS011;56604;48.652;9.194;2024-01-07T09:15:09;16.60;;;8.57;;
69410;SDS011;56604;48.652;9.194;2024-01-07T09:17:35;12.70;;;7.93;;
69410;SDS011;56604;48.652;9.194;2024-01-07T09:20:03;17.57;;;8.10;;
69410;SDS011;56604;48.652;9.194;2024-01-07T09:22:30;10.00;;;7.20;;
69410;SDS011;56604;48.652;9.194;2024-01-07T09:24:55;9.37;;;7.90;;
69410;SDS011;56604;48.652;9.194;2024-01-07T09:27:21;9.13;;;7.30;;
69410;SDS011;56604;48.652;9.194;2024-01-07T09:29:46;15.70;;;8.37;;
69410;SDS011;56604;48.652;9.194;2024-01-07T09:32:12;12.13;;;7.67;;
69410;SDS011;56604;48.652;9.194;2024-01-07T09:34:37;12.20;;;8.07;;
69410;SDS011;56604;48.652;9.194;2024-01-07T09:37:02;12.37;;;8.10;;
69410;SDS011;56604;48.652;9.194;2024-01-07T09:39:28;14.33;;;8.53;;
69410;SDS011;56604;48.652;9.194;2024-01-07T09:41:53;13.30;;;8.43;;
69410;SDS011;56604;48.652;9.194;2024-01-07T09:44:19;12.93;;;9.17;;
69410;SDS011;56604;48.652;9.194;2024-01-07T09:46:44;15.47;;;9.37;;
69410;SDS011;56604;48.652;9.194;2024-01-07T09:49:14;15.57;;;9.23;;
69410;SDS011;56604;48.652;9.194;2024-01-07T09:51:39;15.53;;;9.93;;
69410;SDS011;56604;48.652;9.194;2024-01-07T09:54:09;18.30;;;9.80;;
69410;SDS011;56604;48.652;9.194;2024-01-07T09:56:41;15.53;;;9.57;;
69410;SDS011;56604;48.652;9.194;2024-01-07T09:59:11;16.67;;;9.90;;
69410;SDS011;56604;48.652;9.194;2024-01-07T10:01:40;17.57;;;9.60;;
69410;SDS011;56604;48.652;9.194;2024-01-07T10:04:06;15.63;;;9.60;;
69410;SDS011;56604;48.652;9.194;2024-01-07T10:06:31;12.77;;;8.40;;
69410;SDS011;56604;48.652;9.194;2024-01-07T10:08:58;14.63;;;8.83;;
69410;SDS011;56604;48.652;9.194;2024-01-07T10:11:24;18.03;;;9.10;;
69410;SDS011;56604;48.652;9.194;2024-01-07T10:13:49;12.10;;;7.80;;
69410;SDS011;56604;48.652;9.194;2024-01-07T10:16:17;10.03;;;6.70;;
69410;SDS011;56604;48.652;9.194;2024-01-07T10:18:42;16.33;;;6.90;;
69410;SDS011;56604;48.652;9.194;2024-01-07T10:21:07;8.87;;;6.67;;
69410;SDS011;56604;48.652;9.194;2024-01-07T10:23:33;7.53;;;6.30;;
69410;SDS011;56604;48.652;9.194;2024-01-07T10:25:58;9.27;;;6.10;;
69410;SDS011;56604;48.652;9.194;2024-01-07T10:28:24;9.00;;;5.77;;
69410;SDS011;56604;48.652;9.194;2024-01-07T10:30:49;6.47;;;5.80;;
69410;SDS011;56604;48.652;9.194;2024-01-07T10:33:16;6.43;;;5.50;;
69410;SDS011;56604;48.652;9.194;2024-01-07T10:35:42;8.90;;;6.00;;
69410;SDS011;56604;48.652;9.194;2024-01-07T10:38:26;8.73;;;5.70;;
69410;SDS011;56604;48.652;9.194;2024-01-07T10:40:52;5.30;;;4.23;;
69410;SDS011;56604;48.652;9.194;2024-01-07T10:43:19;7.93;;;5.17;;
69410;SDS011;56604;48.652;9.194;2024-01-07T10:45:45;8.00;;;5.77;;
69410;SDS011;56604;48.652;9.194;2024-01-07T10:48:17;6.10;;;5.50;;
69410;SDS011;56604;48.652;9.194;2024-01-07T10:50:45;5.40;;;4.90;;
69410;SDS011;56604;48.652;9.194;2024-01-07T10:53:12;7.00;;;5.00;;
69410;SDS011;56604;48.652;9.194;2024-01-07T10:55:42;7.20;;;5.77;;
69410;SDS011;56604;48.652;9.194;2024-01-07T10:58:17;9.13;;;5.90;;
69410;SDS011;56604;48.652;9.194;2024-01-07T11:00:44;5.80;;;5.20;;
69410;SDS011;56604;48.652;9.194;2024-01-07T11:05:49;9.87;;;6.03;;
69410;SDS011;56604;48.652;9.194;2024-01-07T11:08:22;9.93;;;6.20;;
69410;SDS011;56604;48.652;9.194;2024-01-07T11:10:55;8.07;;;6.10;;
69410;SDS011;56604;48.652;9.194;2024-01-07T11:16:05;10.33;;;7.00;;
69410;SDS011;56604;48.652;9.194;2024-01-07T11:18:34;10.10;;;6.53;;
69410;SDS011;56604;48.652;9.194;2024-01-07T11:21:04;8.33;;;6.60;;
69410;SDS011;56604;48.652;9.194;2024-01-07T11:23:31;9.13;;;7.30;;
69410;SDS011;56604;48.652;9.194;2024-01-07T11:26:01;11.00;;;6.43;;
69410;SDS011;56604;48.652;9.194;2024-01-07T11:31:20;11.03;;;7.33;;
69410;SDS011;56604;48.652;9.194;2024-01-07T11:33:47;10.27;;;7.17;;
69410;SDS011;56604;48.652;9.194;2024-01-07T11:36:14;12.27;;;6.70;;
69410;SDS011;56604;48.652;9.194;2024-01-07T11:38:43;11.53;;;7.57;;
69410;SDS011;56604;48.652;9.194;2024-01-07T11:41:11;12.40;;;7.83;;
69410;SDS011;56604;48.652;9.194;2024-01-07T11:43:38;12.20;;;7.90;;
69410;SDS011;56604;48.652;9.194;2024-01-07T11:46:03;12.43;;;8.07;;
69410;SDS011;56604;48.652;9.194;2024-01-07T11:48:28;13.13;;;7.70;;
69410;SDS011;56604;48.652;9.194;2024-01-07T11:50:54;6.60;;;5.67;;
69410;SDS011;56604;48.652;9.194;2024-01-07T11:53:20;9.00;;;6.10;;
69410;SDS011;56604;48.652;9.194;2024-01-07T11:55:45;8.57;;;6.67;;
69410;SDS011;56604;48.652;9.194;2024-01-07T11:58:11;8.67;;;6.50;;
69410;SDS011;56604;48.652;9.194;2024-01-07T12:00:37;9.00;;;6.53;;
69410;SDS011;56604;48.652;9.194;2024-01-07T12:03:02;7.70;;;6.20;;
69410;SDS011;56604;48.652;9.194;2024-01-07T12:05:29;8.00;;;6.27;;
69410;SDS011;56604;48.652;9.194;2024-01-07T12:07:54;8.63;;;6.53;;
69410;SDS011;56604;48.652;9.194;2024-01-07T12:10:20;8.90;;;6.90;;
69410;SDS011;56604;48.652;9.194;2024-01-07T12:12:45;9.20;;;6.50;;
69410;SDS011;56604;48.652;9.194;2024-01-07T12:15:12;8.53;;;6.60;;
69410;SDS011;56604;48.652;9.194;2024-01-07T12:17:40;8.47;;;5.93;;
69410;SDS011;56604;48.652;9.194;2024-01-07T12:20:07;9.20;;;6.77;;
69410;SDS011;56604;48.652;9.194;2024-01-07T12:22:33;5.97;;;5.33;;
69410;SDS011;56604;48.652;9.194;2024-01-07T12:25:02;10.40;;;7.20;;
69410;SDS011;56604;48.652;9.194;2024-01-07T12:27:29;9.23;;;6.97;;
69410;SDS011;56604;48.652;9.194;2024-01-07T12:29:55;8.60;;;6.43;;
69410;SDS011;56604;48.652;9.194;2024-01-07T12:32:27;8.53;;;7.00;;
69410;SDS011;56604;48.652;9.194;2024-01-07T12:34:52;10.30;;;7.07;;
69410;SDS011;56604;48.652;9.194;2024-01-07T12:37:18;9.57;;;6.40;;
69410;SDS011;56604;48.652;9.194;2024-01-07T12:39:44;10.53;;;7.47;;
69410;SDS011;56604;48.652;9.194;2024-01-07T12:42:09;9.90;;;6.93;;
69410;SDS011;56604;48.652;9.194;2024-01-07T12:44:38;13.40;;;7.57;;
69410;SDS011;56604;48.652;9.194;2024-01-07T12:47:03;11.03;;;7.60;;
69410;SDS011;56604;48.652;9.194;2024-01-07T12:49:29;10.30;;;7.37;;
69410;SDS011;56604;48.652;9.194;2024-01-07T12:51:54;15.33;;;8.03;;
69410;SDS011;56604;48.652;9.194;2024-01-07T12:54:19;10.70;;;7.80;;
69410;SDS011;56604;48.652;9.194;2024-01-07T12:56:46;10.70;;;6.23;;
69410;SDS011;56604;48.652;9.194;2024-01-07T12:59:11;9.80;;;6.63;;
69410;SDS011;56604;48.652;9.194;2024-01-07T13:01:37;12.20;;;8.37;;
69410;SDS011;56604;48.652;9.194;2024-01-07T13:04:02;8.60;;;6.80;;
69410;SDS011;56604;48.652;9.194;2024-01-07T13:06:27;15.30;;;7.93;;
69410;SDS011;56604;48.652;9.194;2024-01-07T13:08:53;9.67;;;7.60;;
69410;SDS011;56604;48.652;9.194;2024-01-07T13:11:19;11.10;;;7.37;;
69410;SDS011;56604;48.652;9.194;2024-01-07T13:13:45;11.70;;;7.67;;
69410;SDS011;56604;48.652;9.194;2024-01-07T13:16:10;13.97;;;8.00;;
69410;SDS011;56604;48.652;9.194;2024-01-07T13:18:36;11.80;;;8.27;;
69410;SDS011;56604;48.652;9.194;2024-01-07T13:21:02;12.00;;;8.07;;
69410;SDS011;56604;48.652;9.194;2024-01-07T13:23:28;12.17;;;7.80;;
69410;SDS011;56604;48.652;9.194;2024-01-07T13:25:53;13.90;;;7.63;;
69410;SDS011;56604;48.652;9.194;2024-01-07T13:28:19;10.43;;;7.60;;
69410;SDS011;56604;48.652;9.194;2024-01-07T13:30:44;12.47;;;8.57;;
69410;SDS011;56604;48.652;9.194;2024-01-07T13:33:10;12.50;;;8.97;;
69410;SDS011;56604;48.652;9.194;2024-01-07T13:35:35;10.67;;;8.10;;
69410;SDS011;56604;48.652;9.194;2024-01-07T13:38:00;12.50;;;8.10;;
69410;SDS011;56604;48.652;9.194;2024-01-07T13:40:26;11.13;;;7.57;;
69410;SDS011;56604;48.652;9.194;2024-01-07T13:42:52;14.97;;;8.63;;
69410;SDS011;56604;48.652;9.194;2024-01-07T13:45:18;14.73;;;8.93;;
69410;SDS011;56604;48.652;9.194;2024-01-07T13:47:48;11.30;;;7.87;;
69410;SDS011;56604;48.652;9.194;2024-01-07T13:50:13;12.30;;;8.40;;
69410;SDS011;56604;48.652;9.194;2024-01-07T13:52:39;11.67;;;8.50;;
69410;SDS011;56604;48.652;9.194;2024-01-07T13:55:04;14.23;;;8.63;;
69410;SDS011;56604;48.652;9.194;2024-01-07T13:57:30;13.37;;;8.77;;
69410;SDS011;56604;48.652;9.194;2024-01-07T13:59:55;15.20;;;9.10;;
69410;SDS011;56604;48.652;9.194;2024-01-07T14:02:21;15.40;;;8.90;;
69410;SDS011;56604;48.652;9.194;2024-01-07T14:04:47;13.00;;;9.20;;
69410;SDS011;56604;48.652;9.194;2024-01-07T14:07:13;15.60;;;9.13;;
69410;SDS011;56604;48.652;9.194;2024-01-07T14:09:38;12.50;;;7.30;;
69410;SDS011;56604;48.652;9.194;2024-01-07T14:12:04;10.43;;;8.00;;
69410;SDS011;56604;48.652;9.194;2024-01-07T14:14:29;15.67;;;9.53;;
69410;SDS011;56604;48.652;9.194;2024-01-07T14:16:55;16.27;;;10.07;;
69410;SDS011;56604;48.652;9.194;2024-01-07T14:19:20;14.50;;;9.07;;
69410;SDS011;56604;48.652;9.194;2024-01-07T14:21:47;16.80;;;9.97;;
69410;SDS011;56604;48.652;9.194;2024-01-07T14:24:12;17.50;;;10.10;;
69410;SDS011;56604;48.652;9.194;2024-01-07T14:26:39;17.83;;;10.83;;
69410;SDS011;56604;48.652;9.194;2024-01-07T14:29:05;13.13;;;9.80;;